Time;durP1;ratioP1;P1;durP2;ratioP2;P2;SDS_P1;SDS_P2;PMS_P1;PMS_P2;Temp;Humidity;BMP_temperature;BMP_pressure;BME280_temperature;BME280_humidity;BME280_pressure;Samples;Min_cycle;Max_cycle;Signal;HPM_P1;HPM_P2
2024/01/27 00:00:22;;;;;;;16.60;5.60;;;;;;;2.70;100.00;102425.84;5017398;28;20646;-72
2024/01/27 00:02:47;;;;;;;21.83;6.00;;;;;;;2.64;100.00;102424.75;5041998;28;20021;-72
2024/01/27 00:05:13;;;;;;;15.60;5.30;;;;;;;2.64;100.00;102419.25;5018074;28;20570;-72
2024/01/27 00:07:38;;;;;;;14.57;5.65;;;;;;;2.62;100.00;102424.13;5017972;28;20474;-72
2024/01/27 00:10:05;;;;;;;19.33;5.60;;;;;;;2.60;100.00;102430.84;5018025;28;20033;-72
2024/01/27 00:12:30;;;;;;;14.40;6.00;;;;;;;2.59;100.00;102443.72;5001548;28;20163;-72
2024/01/27 00:14:56;;;;;;;19.15;6.75;;;;;;;2.59;100.00;102434.59;4987782;28;20038;-72
2024/01/27 00:17:25;;;;;;;15.20;5.55;;;;;;;2.54;100.00;102426.97;5000263;28;20029;-72
2024/01/27 00:19:51;;;;;;;19.20;5.97;;;;;;;2.49;100.00;102436.81;4989582;28;20437;-71
2024/01/27 00:22:17;;;;;;;19.98;5.95;;;;;;;2.49;100.00;102434.94;4998234;28;20029;-71
2024/01/27 00:24:43;;;;;;;17.40;6.10;;;;;;;2.42;100.00;102429.38;5015815;28;20071;-72
2024/01/27 00:27:08;;;;;;;16.60;6.03;;;;;;;2.46;100.00;102436.16;5001831;28;20033;-72
2024/01/27 00:29:34;;;;;;;17.13;6.07;;;;;;;2.42;100.00;102418.41;4997983;28;20033;-72
2024/01/27 00:31:59;;;;;;;17.23;6.10;;;;;;;2.41;100.00;102416.69;5014845;28;20030;-72
2024/01/27 00:34:25;;;;;;;18.58;5.78;;;;;;;2.43;100.00;102408.28;5017830;28;20042;-72
2024/01/27 00:36:51;;;;;;;16.15;5.80;;;;;;;2.37;100.00;102398.94;5022018;28;20543;-72
2024/01/27 00:39:17;;;;;;;14.90;5.45;;;;;;;2.36;100.00;102396.38;5019389;28;20025;-71
2024/01/27 00:41:43;;;;;;;16.75;5.75;;;;;;;2.32;100.00;102397.81;5018726;28;20049;-72
2024/01/27 00:44:09;;;;;;;16.73;6.20;;;;;;;2.30;100.00;102398.00;5013568;28;20049;-72
2024/01/27 00:46:34;;;;;;;13.98;5.38;;;;;;;2.35;100.00;102406.50;5009712;28;20029;-72
2024/01/27 00:49:00;;;;;;;22.65;5.97;;;;;;;2.27;100.00;102406.63;5017825;28;20410;-71
2024/01/27 00:51:25;;;;;;;18.02;5.88;;;;;;;2.29;100.00;102395.47;5019326;28;20040;-72
2024/01/27 00:53:50;;;;;;;15.68;5.55;;;;;;;2.22;100.00;102395.38;5018121;28;20025;-72
2024/01/27 00:56:16;;;;;;;13.13;5.00;;;;;;;2.21;100.00;102394.53;5017770;28;20552;-72
2024/01/27 00:58:41;;;;;;;17.00;6.18;;;;;;;2.20;100.00;102391.97;5034391;28;20037;-72
2024/01/27 01:01:07;;;;;;;18.58;5.88;;;;;;;2.19;100.00;102396.59;5021518;28;20033;-72
2024/01/27 01:03:32;;;;;;;19.75;5.97;;;;;;;2.16;100.00;102380.53;5021710;28;20088;-72
2024/01/27 01:05:58;;;;;;;16.30;5.30;;;;;;;2.13;100.00;102385.56;5005252;28;20030;-72
2024/01/27 01:08:23;;;;;;;12.60;5.03;;;;;;;2.14;100.00;102382.63;5017921;28;20050;-72
2024/01/27 01:10:49;;;;;;;15.18;5.18;;;;;;;2.09;100.00;102378.75;5032870;28;20037;-71
2024/01/27 01:13:14;;;;;;;19.20;5.10;;;;;;;2.14;100.00;102382.63;5017849;28;20048;-71
2024/01/27 01:15:40;;;;;;;16.17;5.40;;;;;;;2.09;100.00;102379.63;4988655;28;20025;-71
2024/01/27 01:18:05;;;;;;;14.20;5.03;;;;;;;2.13;100.00;102377.34;5020885;28;20453;-72
2024/01/27 01:20:32;;;;;;;13.65;5.47;;;;;;;2.11;100.00;102372.03;5038999;28;20033;-71
2024/01/27 01:22:58;;;;;;;16.08;5.13;;;;;;;2.07;100.00;102367.16;5037714;28;20029;-71
2024/01/27 01:25:24;;;;;;;14.02;4.75;;;;;;;2.05;100.00;102355.53;5020852;28;20065;-72
2024/01/27 01:27:50;;;;;;;14.82;5.07;;;;;;;2.07;100.00;102356.19;5001262;28;20101;-72
2024/01/27 01:30:16;;;;;;;18.83;5.45;;;;;;;2.05;100.00;102350.06;5016236;28;20114;-71
2024/01/27 01:32:42;;;;;;;19.25;5.22;;;;;;;2.11;100.00;102350.13;5019946;28;20041;-72
2024/01/27 01:35:09;;;;;;;15.93;5.45;;;;;;;2.13;100.00;102344.44;5009664;28;20021;-71
2024/01/27 01:37:35;;;;;;;13.55;5.47;;;;;;;2.09;100.00;102338.53;5019152;28;20034;-72
2024/01/27 01:40:00;;;;;;;14.13;5.20;;;;;;;2.15;100.00;102328.66;4992990;28;20120;-72
2024/01/27 01:42:26;;;;;;;18.75;5.25;;;;;;;2.13;100.00;102330.75;5004957;28;20025;-71
2024/01/27 01:44:51;;;;;;;14.48;4.15;;;;;;;2.16;100.00;102331.19;5016999;28;20068;-72
2024/01/27 01:47:17;;;;;;;14.75;5.22;;;;;;;2.17;100.00;102329.31;5016804;28;20041;-71
2024/01/27 01:49:43;;;;;;;14.57;5.15;;;;;;;2.19;100.00;102338.19;5032121;28;20030;-71
2024/01/27 01:52:08;;;;;;;15.68;4.97;;;;;;;2.18;100.00;102325.53;5033195;28;20045;-72
2024/01/27 01:54:34;;;;;;;15.07;4.93;;;;;;;2.23;100.00;102331.28;4984623;28;21778;-72
2024/01/27 01:56:59;;;;;;;16.45;5.22;;;;;;;2.25;100.00;102329.19;5016054;28;20037;-72
2024/01/27 01:59:25;;;;;;;15.50;5.28;;;;;;;2.24;100.00;102332.97;5016675;28;20423;-72
2024/01/27 02:01:51;;;;;;;14.25;5.50;;;;;;;2.25;100.00;102334.66;5032688;28;20095;-71
2024/01/27 02:04:16;;;;;;;13.73;4.57;;;;;;;2.28;100.00;102341.66;4999893;28;20030;-72
2024/01/27 02:06:42;;;;;;;14.90;4.93;;;;;;;2.30;100.00;102326.72;5015590;28;20353;-71
2024/01/27 02:09:09;;;;;;;18.05;4.72;;;;;;;2.28;100.00;102322.47;5016049;28;20552;-72
2024/01/27 02:11:35;;;;;;;12.85;5.25;;;;;;;2.28;100.00;102320.56;5031305;28;20030;-71
2024/01/27 02:14:00;;;;;;;12.57;4.82;;;;;;;2.29;100.00;102327.78;5000445;28;20477;-71
2024/01/27 02:16:26;;;;;;;15.75;5.10;;;;;;;2.30;100.00;102332.19;5013903;28;20096;-71
2024/01/27 02:18:51;;;;;;;17.13;5.45;;;;;;;2.30;100.00;102331.34;5016004;28;20033;-72
2024/01/27 02:21:17;;;;;;;14.73;4.47;;;;;;;2.27;100.00;102331.75;5033265;28;20493;-71
2024/01/27 02:23:42;;;;;;;12.35;4.70;;;;;;;2.26;100.00;102330.03;5015065;28;20088;-71
2024/01/27 02:26:08;;;;;;;14.75;4.43;;;;;;;2.28;100.00;102333.44;5033805;28;20037;-72
2024/01/27 02:28:35;;;;;;;14.90;4.75;;;;;;;2.33;100.00;102330.97;5015600;28;20033;-71
2024/01/27 02:31:00;;;;;;;13.55;5.07;;;;;;;2.30;100.00;102332.19;5032024;28;20653;-71
2024/01/27 02:33:26;;;;;;;17.17;4.47;;;;;;;2.39;100.00;102324.69;5016616;28;20074;-71
2024/01/27 02:35:51;;;;;;;13.35;4.50;;;;;;;2.32;100.00;102319.16;5000955;28;20041;-71
2024/01/27 02:38:17;;;;;;;11.15;4.57;;;;;;;2.35;100.00;102317.91;5032697;28;20041;-71
2024/01/27 02:40:42;;;;;;;15.18;5.18;;;;;;;2.33;100.00;102314.50;5034395;28;20367;-72
2024/01/27 02:43:08;;;;;;;16.17;4.45;;;;;;;2.34;100.00;102317.06;5016060;28;20091;-71
2024/01/27 02:45:33;;;;;;;14.90;4.88;;;;;;;2.37;100.00;102310.34;5015563;28;20031;-72
2024/01/27 02:47:59;;;;;;;16.58;4.68;;;;;;;2.33;100.00;102320.84;4998728;28;20025;-72
2024/01/27 02:50:24;;;;;;;12.48;5.07;;;;;;;2.35;100.00;102313.28;5034062;28;20032;-72
2024/01/27 02:52:50;;;;;;;18.83;4.47;;;;;;;2.37;100.00;102316.69;4997465;28;20025;-72
2024/01/27 02:55:16;;;;;;;10.65;4.28;;;;;;;2.36;100.00;102306.72;5001118;28;20033;-72
2024/01/27 02:57:41;;;;;;;14.00;3.90;;;;;;;2.32;100.00;102307.34;5017829;28;20558;-71
2024/01/27 03:00:07;;;;;;;17.55;4.22;;;;;;;2.33;100.00;102312.59;5034668;28;20491;-72
2024/01/27 03:02:33;;;;;;;17.60;4.55;;;;;;;2.33;100.00;102320.84;5000710;28;20075;-71
2024/01/27 03:04:58;;;;;;;18.02;4.60;;;;;;;2.36;100.00;102314.97;5030769;28;20038;-72
2024/01/27 03:07:24;;;;;;;16.95;4.20;;;;;;;2.39;100.00;102311.81;4998959;28;20013;-72
2024/01/27 03:09:52;;;;;;;11.90;4.03;;;;;;;2.37;100.00;102321.31;5031852;28;20052;-72
2024/01/27 03:12:19;;;;;;;12.82;3.83;;;;;;;2.34;100.00;102325.28;5014566;28;20048;-72
2024/01/27 03:14:46;;;;;;;17.88;4.50;;;;;;;2.33;100.00;102330.97;5015353;28;20029;-72
2024/01/27 03:17:11;;;;;;;15.52;4.65;;;;;;;2.31;100.00;102328.41;4998907;28;20040;-71
2024/01/27 03:19:37;;;;;;;13.45;4.47;;;;;;;2.33;100.00;102314.50;5030610;28;20084;-72
2024/01/27 03:22:02;;;;;;;12.27;3.97;;;;;;;2.31;100.00;102309.22;4998653;28;20045;-72
2024/01/27 03:24:28;;;;;;;10.45;3.65;;;;;;;2.28;100.00;102304.13;5030772;28;20045;-72
2024/01/27 03:26:53;;;;;;;17.25;4.60;;;;;;;2.29;100.00;102313.22;5014734;28;20036;-71
2024/01/27 03:29:19;;;;;;;16.25;4.38;;;;;;;2.29;100.00;102319.53;4999393;28;20087;-72
2024/01/27 03:31:44;;;;;;;15.35;4.68;;;;;;;2.26;100.00;102308.97;5031837;28;20029;-71
2024/01/27 03:34:10;;;;;;;11.82;3.53;;;;;;;2.28;100.00;102312.34;5030872;28;20107;-71
2024/01/27 03:36:35;;;;;;;19.55;4.13;;;;;;;2.31;100.00;102319.34;5015231;28;20049;-71
2024/01/27 03:39:01;;;;;;;13.35;3.70;;;;;;;2.32;100.00;102308.19;5047825;28;20529;-71
2024/01/27 03:41:27;;;;;;;15.65;3.80;;;;;;;2.29;100.00;102308.56;5009570;28;20064;-72
2024/01/27 03:43:52;;;;;;;13.80;4.30;;;;;;;2.26;100.00;102308.09;5050929;28;20036;-72
2024/01/27 03:46:17;;;;;;;12.80;3.50;;;;;;;2.26;100.00;102313.56;5010455;28;20056;-72
2024/01/27 03:48:43;;;;;;;15.65;4.30;;;;;;;2.26;100.00;102316.31;5034967;28;20021;-72
2024/01/27 03:51:08;;;;;;;15.43;3.65;;;;;;;2.26;100.00;102311.72;5000956;28;20030;-72
2024/01/27 03:53:34;;;;;;;9.35;3.45;;;;;;;2.23;100.00;102301.13;4993420;28;20113;-72
2024/01/27 03:56:02;;;;;;;12.27;3.55;;;;;;;2.21;100.00;102303.22;5000879;28;20064;-72
2024/01/27 03:58:28;;;;;;;16.58;3.95;;;;;;;2.24;100.00;102295.44;5016093;28;20038;-71
2024/01/27 04:00:53;;;;;;;13.15;4.18;;;;;;;2.19;100.00;102297.06;5017324;28;20044;-72
2024/01/27 04:03:19;;;;;;;17.80;3.70;;;;;;;2.26;100.00;102298.00;4990869;28;20471;-71
2024/01/27 04:05:45;;;;;;;15.10;3.53;;;;;;;2.16;100.00;102298.31;5001397;28;20033;-72
2024/01/27 04:08:10;;;;;;;11.68;3.20;;;;;;;2.18;100.00;102298.97;5001271;28;20018;-72
2024/01/27 04:10:39;;;;;;;11.57;3.05;;;;;;;2.14;100.00;102296.81;5001587;28;20033;-72
2024/01/27 04:13:05;;;;;;;14.98;4.00;;;;;;;2.15;100.00;102291.13;5017712;28;20030;-71
2024/01/27 04:15:37;;;;;;;13.55;3.20;;;;;;;2.12;100.00;102290.69;5018023;28;20026;-71
2024/01/27 04:18:02;;;;;;;9.75;2.70;;;;;;;2.10;100.00;102292.75;5018275;28;20029;-72
2024/01/27 04:20:28;;;;;;;11.85;2.83;;;;;;;2.11;100.00;102295.28;5017993;28;20037;-72
2024/01/27 04:22:54;;;;;;;11.52;3.65;;;;;;;2.09;100.00;102302.88;5017858;28;20385;-72
2024/01/27 04:25:19;;;;;;;10.25;3.20;;;;;;;2.09;100.00;102297.41;5017831;28;20473;-72
2024/01/27 04:27:46;;;;;;;10.55;2.97;;;;;;;2.06;100.00;102295.03;4990274;28;20052;-71
2024/01/27 04:30:12;;;;;;;9.60;2.97;;;;;;;2.11;100.00;102288.97;5017764;28;20037;-72
2024/01/27 04:32:38;;;;;;;9.40;2.95;;;;;;;2.07;100.00;102287.69;5018082;28;20029;-72
2024/01/27 04:35:04;;;;;;;12.30;3.40;;;;;;;2.05;100.00;102279.63;5017297;28;20029;-72
2024/01/27 04:37:30;;;;;;;12.82;3.10;;;;;;;2.10;100.00;102284.53;5006918;28;20029;-72
2024/01/27 04:39:55;;;;;;;13.55;3.30;;;;;;;2.07;100.00;102284.94;5023083;28;20039;-72
2024/01/27 04:42:21;;;;;;;8.82;3.28;;;;;;;2.11;100.00;102294.44;5003632;28;20065;-71
2024/01/27 04:44:46;;;;;;;10.88;3.10;;;;;;;2.07;100.00;102291.25;4997976;28;20037;-71
2024/01/27 04:47:12;;;;;;;13.48;3.40;;;;;;;2.04;100.00;102293.56;5029910;28;20085;-72
2024/01/27 04:49:37;;;;;;;13.90;2.88;;;;;;;2.06;100.00;102296.91;4985237;28;20470;-72
2024/01/27 04:52:03;;;;;;;10.02;2.90;;;;;;;2.01;100.00;102281.91;5017522;28;20417;-72
2024/01/27 04:54:28;;;;;;;11.25;3.05;;;;;;;2.07;100.00;102283.03;5034118;28;20079;-72
2024/01/27 04:56:54;;;;;;;8.23;2.88;;;;;;;2.01;100.00;102276.44;5017175;28;20022;-71
2024/01/27 04:59:19;;;;;;;17.85;3.10;;;;;;;1.98;100.00;102271.34;4984760;28;20025;-72
2024/01/27 05:01:45;;;;;;;10.93;3.28;;;;;;;2.01;100.00;102261.91;4990677;28;20037;-71
2024/01/27 05:04:11;;;;;;;12.63;3.35;;;;;;;1.98;100.00;102262.28;5001369;28;20474;-71
2024/01/27 05:06:38;;;;;;;10.93;3.10;;;;;;;1.99;100.00;102258.50;5034057;28;20106;-71
2024/01/27 05:09:05;;;;;;;9.45;3.08;;;;;;;1.92;100.00;102252.94;5017603;28;20026;-72
2024/01/27 05:11:32;;;;;;;8.68;2.90;;;;;;;1.91;100.00;102250.38;5014352;28;20069;-71
2024/01/27 05:13:58;;;;;;;6.68;2.80;;;;;;;1.90;100.00;102246.81;5015564;28;20026;-72
2024/01/27 05:16:24;;;;;;;14.68;3.42;;;;;;;1.91;100.00;102256.72;5050477;28;20026;-71
2024/01/27 05:18:49;;;;;;;7.95;2.58;;;;;;;1.88;100.00;102259.84;5017273;28;20375;-71
2024/01/27 05:21:15;;;;;;;10.80;3.03;;;;;;;1.87;100.00;102257.31;5017375;28;20033;-72
2024/01/27 05:23:41;;;;;;;8.38;2.80;;;;;;;1.82;100.00;102255.16;4997407;28;20050;-72
2024/01/27 05:26:06;;;;;;;13.70;3.42;;;;;;;1.81;100.00;102244.38;5015248;28;20033;-71
2024/01/27 05:28:33;;;;;;;9.70;3.05;;;;;;;1.77;100.00;102244.75;4984587;28;20513;-71
2024/01/27 05:30:58;;;;;;;14.63;3.20;;;;;;;1.78;100.00;102251.09;5013803;28;20030;-72
2024/01/27 05:33:24;;;;;;;14.10;3.08;;;;;;;1.73;100.00;102253.56;5032597;28;20045;-71
2024/01/27 05:35:49;;;;;;;12.25;3.03;;;;;;;1.74;100.00;102245.16;5017413;28;20037;-72
2024/01/27 05:38:16;;;;;;;7.57;2.70;;;;;;;1.75;100.00;102244.09;4988477;28;20049;-71
2024/01/27 05:40:41;;;;;;;13.32;3.45;;;;;;;1.73;100.00;102237.13;4995286;28;20029;-72
2024/01/27 05:43:07;;;;;;;13.60;2.75;;;;;;;1.75;100.00;102246.84;5015095;28;20120;-72
2024/01/27 05:45:33;;;;;;;10.10;2.67;;;;;;;1.73;100.00;102245.34;5011334;28;20029;-72
2024/01/27 05:47:58;;;;;;;13.70;2.90;;;;;;;1.70;100.00;102241.13;5021115;28;20112;-72
2024/01/27 05:50:23;;;;;;;7.07;2.72;;;;;;;1.69;100.00;102244.03;5020655;28;20371;-71
2024/01/27 05:52:49;;;;;;;9.57;2.92;;;;;;;1.72;100.00;102238.16;5023100;28;20029;-71
2024/01/27 05:55:16;;;;;;;9.82;2.47;;;;;;;1.69;100.00;102244.03;5018921;28;20040;-72
2024/01/27 05:57:41;;;;;;;9.32;3.03;;;;;;;1.68;100.00;102237.72;5020044;28;20037;-72
2024/01/27 06:00:09;;;;;;;10.50;2.47;;;;;;;1.65;100.00;102237.25;4993404;28;20690;-71
2024/01/27 06:02:36;;;;;;;9.20;3.03;;;;;;;1.63;100.00;102242.91;5009536;28;20029;-71
2024/01/27 06:05:01;;;;;;;17.92;3.53;;;;;;;1.62;100.00;102246.69;5020585;28;20029;-72
2024/01/27 06:07:27;;;;;;;11.15;2.63;;;;;;;1.56;100.00;102241.97;5004309;28;20026;-71
2024/01/27 06:09:52;;;;;;;11.52;2.95;;;;;;;1.53;100.00;102245.97;5036838;28;20441;-71
2024/01/27 06:12:18;;;;;;;18.55;3.08;;;;;;;1.54;100.00;102250.38;5003899;28;20033;-72
2024/01/27 06:14:44;;;;;;;16.10;3.05;;;;;;;1.50;100.00;102246.31;5020302;28;20025;-71
2024/01/27 06:17:09;;;;;;;10.30;3.00;;;;;;;1.50;100.00;102237.25;5020340;28;20033;-71
2024/01/27 06:19:35;;;;;;;11.48;3.17;;;;;;;1.48;100.00;102242.94;4993570;28;20030;-72
2024/01/27 06:22:00;;;;;;;12.18;3.22;;;;;;;1.50;100.00;102242.75;5016936;28;20029;-71
2024/01/27 06:24:26;;;;;;;8.27;2.88;;;;;;;1.48;100.00;102236.63;5016283;28;20521;-71
2024/01/27 06:26:52;;;;;;;12.50;3.70;;;;;;;1.45;100.00;102250.69;5020011;28;20453;-71
2024/01/27 06:29:18;;;;;;;12.20;3.33;;;;;;;1.46;100.00;102245.03;4992759;28;20030;-71
2024/01/27 06:31:44;;;;;;;13.10;3.90;;;;;;;1.39;100.00;102257.75;5025384;28;20100;-72
2024/01/27 06:34:09;;;;;;;13.20;2.92;;;;;;;1.40;100.00;102254.00;5002518;28;20501;-72
2024/01/27 06:36:35;;;;;;;13.65;3.28;;;;;;;1.39;100.00;102260.50;5035201;28;20025;-71
2024/01/27 06:39:00;;;;;;;7.68;3.08;;;;;;;1.39;100.00;102251.44;5034754;28;20041;-72
2024/01/27 06:41:26;;;;;;;9.43;3.38;;;;;;;1.35;100.00;102253.72;5018925;28;20066;-72
2024/01/27 06:43:51;;;;;;;11.68;3.42;;;;;;;1.32;100.00;102256.84;5000011;28;20025;-72
2024/01/27 06:46:17;;;;;;;10.48;3.20;;;;;;;1.34;100.00;102254.78;5032823;28;20034;-72
2024/01/27 06:48:43;;;;;;;12.20;3.00;;;;;;;1.34;100.00;102249.31;5016972;28;20036;-72
2024/01/27 06:51:08;;;;;;;10.25;3.25;;;;;;;1.34;100.00;102252.88;5001180;28;20487;-71
2024/01/27 06:53:34;;;;;;;10.25;3.10;;;;;;;1.33;100.00;102247.59;4987174;28;20037;-71
2024/01/27 06:55:59;;;;;;;18.50;3.28;;;;;;;1.37;100.00;102246.19;5016970;28;20022;-72
2024/01/27 06:58:25;;;;;;;13.35;3.55;;;;;;;1.33;100.00;102247.59;5051709;28;20129;-71
2024/01/27 07:00:50;;;;;;;10.30;2.97;;;;;;;1.30;100.00;102243.34;5002968;28;20053;-71
2024/01/27 07:03:16;;;;;;;16.27;3.53;;;;;;;1.31;100.00;102238.75;5019570;28;20030;-71
2024/01/27 07:05:41;;;;;;;14.18;3.30;;;;;;;1.35;100.00;102245.50;5019259;28;20033;-72
2024/01/27 07:08:07;;;;;;;15.50;3.05;;;;;;;1.35;100.00;102240.03;5003076;28;20041;-72
2024/01/27 07:10:33;;;;;;;13.55;3.05;;;;;;;1.37;100.00;102246.19;5019446;28;20033;-71
2024/01/27 07:12:58;;;;;;;10.52;2.92;;;;;;;1.39;100.00;102237.75;5018954;28;20033;-72
2024/01/27 07:15:24;;;;;;;9.75;3.00;;;;;;;1.39;100.00;102241.34;5018960;28;20075;-71
2024/01/27 07:17:50;;;;;;;10.55;2.92;;;;;;;1.38;100.00;102244.28;5018732;28;20060;-71
2024/01/27 07:20:15;;;;;;;6.55;2.80;;;;;;;1.42;100.00;102241.00;5018819;28;20051;-71
2024/01/27 07:22:41;;;;;;;12.38;2.95;;;;;;;1.39;100.00;102233.13;5035145;28;20021;-71
2024/01/27 07:25:09;;;;;;;9.32;2.90;;;;;;;1.35;100.00;102223.59;5035389;28;20057;-72
2024/01/27 07:27:36;;;;;;;9.90;2.63;;;;;;;1.38;100.00;102225.97;5035534;28;20025;-71
2024/01/27 07:30:03;;;;;;;11.68;2.50;;;;;;;1.41;100.00;102228.31;4999941;28;20128;-72
2024/01/27 07:32:32;;;;;;;9.55;2.65;;;;;;;1.40;100.00;102229.38;5030164;28;20045;-72
2024/01/27 07:34:57;;;;;;;14.18;2.92;;;;;;;1.40;100.00;102242.22;5002908;28;20044;-72
2024/01/27 07:37:23;;;;;;;8.68;3.08;;;;;;;1.42;100.00;102240.09;5008411;28;20419;-72
2024/01/27 07:39:49;;;;;;;16.23;2.80;;;;;;;1.49;100.00;102239.16;5006256;28;20024;-71
2024/01/27 07:42:15;;;;;;;10.57;2.80;;;;;;;1.49;100.00;102239.16;5021487;28;20052;-71
2024/01/27 07:44:41;;;;;;;11.68;2.75;;;;;;;1.50;100.00;102235.38;5016203;28;20113;-72
2024/01/27 07:47:06;;;;;;;16.80;3.60;;;;;;;1.49;100.00;102241.91;5013553;28;20030;-72
2024/01/27 07:49:31;;;;;;;12.93;3.13;;;;;;;1.53;100.00;102251.44;5001524;28;20038;-72
2024/01/27 07:51:57;;;;;;;13.40;2.72;;;;;;;1.53;100.00;102248.72;5021235;28;20026;-72
2024/01/27 07:54:22;;;;;;;9.55;2.60;;;;;;;1.54;100.00;102250.38;4985795;28;20030;-71
2024/01/27 07:56:48;;;;;;;16.00;2.88;;;;;;;1.57;100.00;102243.69;5000074;28;20041;-72
2024/01/27 07:59:14;;;;;;;11.10;2.72;;;;;;;1.61;100.00;102238.66;5001868;28;20541;-72
2024/01/27 08:01:42;;;;;;;10.50;3.13;;;;;;;1.61;100.00;102244.97;5034635;28;20041;-72
2024/01/27 08:04:08;;;;;;;20.90;4.28;;;;;;;1.60;100.00;102251.50;5002318;28;20108;-72
2024/01/27 08:06:33;;;;;;;15.35;3.50;;;;;;;1.64;100.00;102249.22;5018327;28;20072;-72
2024/01/27 08:08:59;;;;;;;12.07;3.05;;;;;;;1.65;100.00;102242.72;5001452;28;20028;-72
2024/01/27 08:11:24;;;;;;;13.00;2.78;;;;;;;1.68;100.00;102250.56;5001743;28;20080;-72
2024/01/27 08:13:50;;;;;;;10.75;3.08;;;;;;;1.67;100.00;102248.84;5018109;28;20057;-72
2024/01/27 08:16:16;;;;;;;20.27;3.28;;;;;;;1.69;100.00;102241.28;5002057;28;20025;-72
2024/01/27 08:18:45;;;;;;;10.73;3.13;;;;;;;1.75;100.00;102235.03;5017913;28;20534;-72
2024/01/27 08:21:11;;;;;;;11.38;3.05;;;;;;;1.77;100.00;102236.53;5018349;28;20127;-73
2024/01/27 08:23:37;;;;;;;10.98;3.17;;;;;;;1.82;100.00;102241.44;5034169;28;20124;-72
2024/01/27 08:26:03;;;;;;;14.60;3.15;;;;;;;1.84;100.00;102235.75;5051164;28;20057;-72
2024/01/27 08:28:28;;;;;;;11.20;3.00;;;;;;;1.89;100.00;102231.38;5017591;28;20098;-73
2024/01/27 08:30:54;;;;;;;13.45;3.50;;;;;;;1.95;100.00;102248.94;5001830;28;20079;-73
2024/01/27 08:33:19;;;;;;;14.52;3.50;;;;;;;1.99;100.00;102242.91;4999405;28;20545;-72
2024/01/27 08:35:48;;;;;;;16.83;3.30;;;;;;;2.08;100.00;102240.03;5001646;28;20099;-72
2024/01/27 08:38:14;;;;;;;18.42;3.33;;;;;;;2.14;100.00;102241.97;5035750;28;20029;-72
2024/01/27 08:40:40;;;;;;;12.00;3.63;;;;;;;2.19;100.00;102243.09;5028548;28;20108;-72
2024/01/27 08:43:05;;;;;;;18.42;3.30;;;;;;;2.29;100.00;102247.41;5018146;28;20025;-72
2024/01/27 08:45:31;;;;;;;13.25;2.72;;;;;;;2.37;100.00;102248.13;5001134;28;20029;-72
2024/01/27 08:47:57;;;;;;;16.38;3.30;;;;;;;2.40;100.00;102236.75;5018006;28;20022;-72
2024/01/27 08:50:23;;;;;;;18.50;4.25;;;;;;;2.50;100.00;102227.34;5017483;28;20061;-72
2024/01/27 08:52:48;;;;;;;14.77;3.65;;;;;;;2.57;100.00;102229.09;5036805;28;20036;-72
2024/01/27 08:55:14;;;;;;;9.32;2.92;;;;;;;2.64;100.00;102234.63;5017918;28;20079;-72
2024/01/27 08:57:39;;;;;;;15.38;3.35;;;;;;;2.73;100.00;102243.53;5001182;28;20044;-72
2024/01/27 09:00:05;;;;;;;15.20;3.60;;;;;;;2.78;100.00;102254.75;5017516;28;20083;-72
2024/01/27 09:02:32;;;;;;;18.05;3.40;;;;;;;2.84;100.00;102259.44;5000357;28;20474;-72
2024/01/27 09:04:57;;;;;;;18.33;3.53;;;;;;;2.89;100.00;102249.56;5017811;28;20033;-72
2024/01/27 09:07:23;;;;;;;18.05;3.80;;;;;;;2.95;100.00;102241.59;5017073;28;20401;-72
2024/01/27 09:09:49;;;;;;;14.43;3.20;;;;;;;3.02;100.00;102231.50;5017856;28;20096;-72
2024/01/27 09:12:15;;;;;;;14.30;2.85;;;;;;;3.07;100.00;102245.47;5001031;28;20036;-72
2024/01/27 09:14:40;;;;;;;12.98;3.25;;;;;;;3.14;100.00;102244.44;5034169;28;20030;-72
2024/01/27 09:17:06;;;;;;;8.32;2.83;;;;;;;3.22;100.00;102245.34;5017746;28;20029;-73
2024/01/27 09:19:32;;;;;;;17.40;3.63;;;;;;;3.26;100.00;102250.25;5050874;28;20413;-72
2024/01/27 09:21:57;;;;;;;14.50;2.97;;;;;;;3.32;100.00;102249.41;4988305;28;20398;-72
2024/01/27 09:24:23;;;;;;;12.02;2.88;;;;;;;3.42;100.00;102250.94;5037544;28;20049;-72
2024/01/27 09:26:48;;;;;;;12.57;2.85;;;;;;;3.48;100.00;102259.22;5020655;28;20036;-72
2024/01/27 09:29:14;;;;;;;13.75;2.72;;;;;;;3.56;100.00;102252.69;5020781;28;20026;-72
2024/01/27 09:31:40;;;;;;;11.30;3.15;;;;;;;3.63;100.00;102247.22;5020914;28;20529;-72
2024/01/27 09:34:05;;;;;;;11.38;2.50;;;;;;;3.72;100.00;102238.59;5020922;28;20033;-72
2024/01/27 09:36:31;;;;;;;13.20;2.58;;;;;;;3.80;100.00;102235.66;5020851;28;20033;-72
2024/01/27 09:38:56;;;;;;;10.63;2.63;;;;;;;3.90;100.00;102234.41;5020754;28;20485;-72
2024/01/27 09:41:22;;;;;;;11.13;2.92;;;;;;;4.01;100.00;102239.28;5027115;28;20033;-72
2024/01/27 09:43:47;;;;;;;11.50;2.60;;;;;;;4.06;100.00;102231.28;4994075;28;20033;-72
2024/01/27 09:46:16;;;;;;;14.02;3.22;;;;;;;4.18;100.00;102232.38;5045638;28;20558;-75
2024/01/27 09:48:42;;;;;;;8.90;2.55;;;;;;;4.25;100.00;102238.69;5037174;28;20029;-71
2024/01/27 09:51:09;;;;;;;10.60;2.63;;;;;;;4.35;100.00;102237.47;5004604;28;20505;-72
2024/01/27 09:53:35;;;;;;;12.40;2.47;;;;;;;4.45;100.00;102227.72;5006606;28;20168;-72
2024/01/27 09:56:01;;;;;;;11.98;2.58;;;;;;;4.53;100.00;102229.41;4987007;28;20390;-72
2024/01/27 09:58:28;;;;;;;9.52;2.28;;;;;;;4.63;100.00;102227.09;5002187;28;20105;-72
2024/01/27 10:00:57;;;;;;;16.17;3.35;;;;;;;4.70;100.00;102229.81;4987227;28;20041;-72
2024/01/27 10:03:26;;;;;;;7.45;2.30;;;;;;;4.83;100.00;102234.47;4993651;28;20079;-72
2024/01/27 10:05:53;;;;;;;12.88;3.15;;;;;;;4.89;100.00;102225.34;4988183;28;20370;-72
2024/01/27 10:08:18;;;;;;;7.07;2.40;;;;;;;4.96;100.00;102223.44;4987825;28;20056;-72
2024/01/27 10:10:44;;;;;;;16.02;2.72;;;;;;;5.02;100.00;102208.81;5003481;28;20086;-72
2024/01/27 10:13:09;;;;;;;9.70;2.80;;;;;;;5.11;100.00;102199.25;4997815;28;20478;-72
2024/01/27 10:15:35;;;;;;;14.60;3.13;;;;;;;5.16;100.00;102190.34;5002627;28;20033;-73
2024/01/27 10:18:07;;;;;;;11.38;2.70;;;;;;;5.26;100.00;102187.13;5002763;28;20514;-72
2024/01/27 10:20:33;;;;;;;10.82;3.38;;;;;;;5.33;100.00;102190.72;5019124;28;20040;-72
2024/01/27 10:22:59;;;;;;;6.57;2.33;;;;;;;5.43;100.00;102202.09;5035880;28;20030;-72
2024/01/27 10:25:25;;;;;;;12.88;2.95;;;;;;;5.48;100.00;102199.53;5010442;28;20619;-72
2024/01/27 10:27:58;;;;;;;9.10;2.67;;;;;;;5.56;100.00;102209.47;5001990;28;20030;-72
2024/01/27 10:30:27;;;;;;;10.45;3.35;;;;;;;5.64;100.00;102216.66;5020558;28;20124;-72
2024/01/27 10:32:56;;;;;;;12.10;2.85;;;;;;;5.70;100.00;102213.00;5019076;28;20485;-72
2024/01/27 10:35:22;;;;;;;9.45;2.50;;;;;;;5.77;100.00;102202.78;5047263;28;20033;-72
2024/01/27 10:37:51;;;;;;;11.43;2.90;;;;;;;5.86;100.00;102200.63;5042722;28;20037;-72
2024/01/27 10:40:17;;;;;;;11.38;2.53;;;;;;;5.96;100.00;102189.97;5004868;28;20398;-72
2024/01/27 10:42:43;;;;;;;13.00;3.03;;;;;;;6.06;100.00;102200.53;5009722;28;20034;-72
2024/01/27 10:45:09;;;;;;;8.38;2.10;;;;;;;6.11;100.00;102208.97;5034261;28;20489;-72
2024/01/27 10:47:34;;;;;;;9.48;2.63;;;;;;;6.12;100.00;102208.75;5020677;28;20025;-72
2024/01/27 10:50:00;;;;;;;11.07;2.30;;;;;;;6.18;100.00;102210.59;5030442;28;20040;-72
2024/01/27 10:52:32;;;;;;;18.42;2.72;;;;;;;6.21;100.00;102204.66;5036976;28;20033;-72
2024/01/27 10:55:02;;;;;;;8.77;1.90;;;;;;;6.24;100.00;102197.81;5000685;28;20402;-72
2024/01/27 10:57:29;;;;;;;8.75;2.05;;;;;;;6.25;100.00;102185.72;5018572;28;20030;-72
2024/01/27 10:59:54;;;;;;;8.77;1.75;;;;;;;6.24;100.00;102187.66;5020181;28;20025;-72
2024/01/27 11:02:20;;;;;;;8.90;1.98;;;;;;;6.25;100.00;102185.72;4986126;28;20033;-72
2024/01/27 11:04:45;;;;;;;8.65;2.17;;;;;;;6.26;100.00;102177.22;5020166;28;20497;-72
2024/01/27 11:07:11;;;;;;;11.90;2.08;;;;;;;6.25;100.00;102166.41;5020135;28;20474;-72
2024/01/27 11:09:36;;;;;;;11.18;2.38;;;;;;;6.26;100.00;102159.81;5020147;28;20035;-72
2024/01/27 11:12:02;;;;;;;9.68;2.10;;;;;;;6.28;100.00;102151.34;5018471;28;20040;-72